createdAt,value
2018-11-06T00:01:25.452Z,49.37
2018-11-06T00:03:59.104Z,31.10
2018-11-06T00:06:27.408Z,57.37
2018-11-06T00:08:55.667Z,40.53
2018-11-06T00:11:23.747Z,32.90
2018-11-06T00:13:51.821Z,84.50
2018-11-06T00:16:20.016Z,45.77
2018-11-06T00:18:48.168Z,65.10
2018-11-06T00:21:16.217Z,63.47
2018-11-06T00:23:44.338Z,33.07
2018-11-06T00:26:12.785Z,38.80
2018-11-06T00:28:40.846Z,38.10
2018-11-06T00:31:08.931Z,45.67
2018-11-06T00:33:37.068Z,92.27
2018-11-06T00:36:05.490Z,28.70
2018-11-06T00:38:33.650Z,26.83
2018-11-06T00:41:01.825Z,25.53
2018-11-06T00:43:30.036Z,25.40
2018-11-06T00:45:58.225Z,32.10
2018-11-06T00:48:26.424Z,32.53
2018-11-06T00:50:54.722Z,37.37
2018-11-06T00:53:22.828Z,28.60
2018-11-06T00:55:50.860Z,26.07
2018-11-06T00:58:19.005Z,60.23
2018-11-06T01:00:47.223Z,44.43
2018-11-06T01:03:15.357Z,26.97
2018-11-06T01:05:43.458Z,25.20
2018-11-06T01:08:11.731Z,40.03
2018-11-06T01:10:39.877Z,23.30
2018-11-06T01:13:07.981Z,26.57
2018-11-06T01:15:36.029Z,26.40
2018-11-06T01:18:04.128Z,88.33
2018-11-06T01:20:32.168Z,26.03
2018-11-06T01:23:00.568Z,27.80
2018-11-06T01:25:28.624Z,28.33
2018-11-06T01:27:57.017Z,22.70
2018-11-06T01:30:25.068Z,26.27
2018-11-06T01:32:53.160Z,24.70
2018-11-06T01:35:21.236Z,27.30
2018-11-06T01:37:49.311Z,22.63
2018-11-06T01:40:18.333Z,24.47
2018-11-06T01:42:47.019Z,24.67
2018-11-06T01:45:16.134Z,22.13
2018-11-06T01:47:44.271Z,22.83
2018-11-06T01:50:14.184Z,25.07
2018-11-06T01:52:43.477Z,23.20
2018-11-06T01:55:11.943Z,20.83
2018-11-06T01:57:40.333Z,20.57
2018-11-06T02:00:11.006Z,21.27
2018-11-06T02:02:39.431Z,20.13
2018-11-06T02:05:08.936Z,20.77
2018-11-06T02:07:37.109Z,19.63
2018-11-06T02:10:05.677Z,19.93
2018-11-06T02:12:33.864Z,20.10
2018-11-06T02:15:02.025Z,22.10
2018-11-06T02:17:30.200Z,21.43
2018-11-06T02:19:58.355Z,22.27
2018-11-06T02:22:26.527Z,24.37
2018-11-06T02:24:54.635Z,21.97
2018-11-06T02:27:22.911Z,20.37
2018-11-06T02:29:51.093Z,17.93
2018-11-06T02:32:19.630Z,18.50
2018-11-06T02:34:47.872Z,18.20
2018-11-06T02:37:16.084Z,21.43
2018-11-06T02:39:44.205Z,21.47
2018-11-06T02:42:12.287Z,17.03
2018-11-06T02:44:40.314Z,19.67
2018-11-06T02:47:08.835Z,21.37
2018-11-06T02:49:37.089Z,21.20
2018-11-06T02:52:05.596Z,20.67
2018-11-06T02:54:33.620Z,21.43
2018-11-06T02:57:01.690Z,23.77
2018-11-06T02:59:29.861Z,21.50
2018-11-06T03:01:57.954Z,21.37
2018-11-06T03:04:26.052Z,21.17
2018-11-06T03:06:54.232Z,21.43
2018-11-06T03:09:22.382Z,18.50
2018-11-06T03:11:50.453Z,18.03
2018-11-06T03:14:18.615Z,20.13
2018-11-06T03:16:46.724Z,17.50
2018-11-06T03:19:15.166Z,16.37
2018-11-06T03:21:43.252Z,17.93
2018-11-06T03:24:11.385Z,20.30
2018-11-06T03:26:39.515Z,19.90
2018-11-06T03:29:07.647Z,17.20
2018-11-06T03:31:35.950Z,17.87
2018-11-06T03:34:03.989Z,16.87
2018-11-06T03:36:32.088Z,18.30
2018-11-06T03:39:00.348Z,17.63
2018-11-06T03:41:28.447Z,19.00
2018-11-06T03:43:56.473Z,17.10
2018-11-06T03:46:24.579Z,20.43
2018-11-06T03:48:52.671Z,19.50
2018-11-06T03:51:20.697Z,18.90
2018-11-06T03:53:48.811Z,19.20
2018-11-06T03:56:16.844Z,17.53
2018-11-06T03:58:45.090Z,17.07
2018-11-06T04:01:13.223Z,19.67
2018-11-06T04:03:41.367Z,16.77
2018-11-06T04:06:09.507Z,21.47
2018-11-06T04:08:37.720Z,22.20
2018-11-06T04:11:05.888Z,22.87
2018-11-06T04:13:33.968Z,18.97
2018-11-06T04:16:02.145Z,21.53
2018-11-06T04:18:30.451Z,16.03
2018-11-06T04:20:58.685Z,18.23
2018-11-06T04:23:26.845Z,19.67
2018-11-06T04:25:54.987Z,17.53
2018-11-06T04:28:23.099Z,20.40
2018-11-06T04:30:51.211Z,18.97
2018-11-06T04:33:19.321Z,18.63
2018-11-06T04:35:47.492Z,18.90
2018-11-06T04:38:15.609Z,18.83
2018-11-06T04:40:43.981Z,16.73
2018-11-06T04:43:12.037Z,16.73
2018-11-06T04:45:40.218Z,15.53
2018-11-06T04:48:08.380Z,15.43
2018-11-06T04:50:36.461Z,13.00
2018-11-06T04:53:04.540Z,15.77
2018-11-06T04:55:32.583Z,16.03
2018-11-06T04:58:00.688Z,17.87
2018-11-06T05:00:31.452Z,18.93
2018-11-06T05:02:59.723Z,16.80
2018-11-06T05:05:28.063Z,17.60
2018-11-06T05:07:56.111Z,15.80
2018-11-06T05:10:24.204Z,19.73
2018-11-06T05:12:52.478Z,17.13
2018-11-06T05:15:20.611Z,19.03
2018-11-06T05:17:48.827Z,23.23
2018-11-06T05:20:17.566Z,28.53
2018-11-06T05:22:46.438Z,21.73
2018-11-06T05:25:14.917Z,23.97
2018-11-06T05:27:42.964Z,28.80
2018-11-06T05:30:11.794Z,23.50
2018-11-06T05:32:41.352Z,24.63
2018-11-06T05:35:10.148Z,23.47
2018-11-06T05:37:38.436Z,24.20
2018-11-06T05:41:13.676Z,21.83
2018-11-06T05:43:41.752Z,23.43
2018-11-06T05:46:09.819Z,21.63
2018-11-06T05:48:37.973Z,18.53
2018-11-06T05:51:06.206Z,20.23
2018-11-06T05:53:34.441Z,23.07
2018-11-06T05:56:02.630Z,18.57
2018-11-06T05:58:30.798Z,21.47
2018-11-06T06:00:58.861Z,16.70
2018-11-06T06:03:26.930Z,17.03
2018-11-06T06:05:55.009Z,18.70
2018-11-06T06:08:23.117Z,17.73
2018-11-06T06:10:51.242Z,18.50
2018-11-06T06:13:19.303Z,16.13
2018-11-06T06:15:47.384Z,19.20
2018-11-06T06:18:15.456Z,17.03
2018-11-06T06:20:43.718Z,20.20
2018-11-06T06:23:11.777Z,18.40
2018-11-06T06:25:39.859Z,18.60
2018-11-06T06:28:08.063Z,22.53
2018-11-06T06:30:36.080Z,21.30
2018-11-06T06:33:04.164Z,18.50
2018-11-06T06:35:32.233Z,21.07
2018-11-06T06:38:00.356Z,24.37
2018-11-06T06:40:28.491Z,18.80
2018-11-06T06:42:56.673Z,17.53
2018-11-06T06:45:24.811Z,19.30
2018-11-06T06:47:53.089Z,16.97
2018-11-06T06:50:21.262Z,17.97
2018-11-06T06:52:49.639Z,15.63
2018-11-06T06:55:18.095Z,15.03
2018-11-06T06:57:47.168Z,19.00
2018-11-06T07:00:16.612Z,17.43
2018-11-06T07:02:44.705Z,21.37
2018-11-06T07:05:14.044Z,17.77
2018-11-06T07:07:42.844Z,15.03
2018-11-06T07:10:12.900Z,19.07
2018-11-06T07:12:41.950Z,18.37
2018-11-06T07:15:11.658Z,26.90
2018-11-06T07:17:40.140Z,23.53
2018-11-06T07:20:10.680Z,24.70
2018-11-06T07:22:38.813Z,25.43
2018-11-06T07:25:08.092Z,21.87
2018-11-06T07:27:36.212Z,19.50
2018-11-06T07:30:05.384Z,27.80
2018-11-06T07:32:33.520Z,21.10
2018-11-06T07:35:01.885Z,20.17
2018-11-06T07:37:30.018Z,18.10
2018-11-06T07:39:58.071Z,19.83
2018-11-06T07:42:26.242Z,22.50
2018-11-06T07:45:01.174Z,26.57
2018-11-06T07:47:29.540Z,23.03
2018-11-06T07:49:57.778Z,26.33
2018-11-06T07:52:25.988Z,29.70
2018-11-06T07:54:54.219Z,33.37
2018-11-06T07:57:22.320Z,34.90
2018-11-06T07:59:50.637Z,27.47
2018-11-06T08:02:18.709Z,27.17
2018-11-06T08:04:46.850Z,32.70
2018-11-06T08:07:14.941Z,26.20
2018-11-06T08:09:43.026Z,34.53
2018-11-06T08:12:11.115Z,33.63
2018-11-06T08:14:39.183Z,37.27
2018-11-06T08:17:07.607Z,32.07
2018-11-06T08:19:35.810Z,30.87
2018-11-06T08:22:03.865Z,34.93
2018-11-06T08:24:32.156Z,32.57
2018-11-06T08:27:00.234Z,37.17
2018-11-06T08:29:28.320Z,40.63
2018-11-06T08:31:56.795Z,43.93
2018-11-06T08:34:24.565Z,40.13
2018-11-06T08:36:52.646Z,47.93
2018-11-06T08:39:20.760Z,36.30
2018-11-06T08:41:48.877Z,39.07
2018-11-06T08:44:16.936Z,40.10
2018-11-06T08:46:45.012Z,40.17
2018-11-06T08:49:13.061Z,38.00
2018-11-06T08:51:41.450Z,40.07
2018-11-06T08:54:09.509Z,37.70
2018-11-06T08:56:37.696Z,34.77
2018-11-06T08:59:05.845Z,38.40
2018-11-06T09:01:34.053Z,38.27
2018-11-06T09:04:02.097Z,32.37
2018-11-06T09:06:30.229Z,38.23
2018-11-06T09:08:58.398Z,39.87
2018-11-06T09:11:26.436Z,37.40
2018-11-06T09:13:54.602Z,39.97
2018-11-06T09:16:22.661Z,39.40
2018-11-06T09:18:50.981Z,37.90
2018-11-06T09:21:19.036Z,44.03
2018-11-06T09:23:47.100Z,33.77
2018-11-06T09:26:15.191Z,33.40
2018-11-06T09:28:43.336Z,33.57
2018-11-06T09:31:11.552Z,37.57
2018-11-06T09:33:39.678Z,34.43
2018-11-06T09:36:07.995Z,32.80
2018-11-06T09:38:36.129Z,35.33
2018-11-06T09:41:04.324Z,33.83
2018-11-06T09:43:32.372Z,38.17
2018-11-06T09:46:00.526Z,32.23
2018-11-06T09:48:28.604Z,35.73
2018-11-06T09:50:56.681Z,30.13
2018-11-06T09:53:24.774Z,37.13
2018-11-06T09:55:52.865Z,31.40
2018-11-06T09:58:20.897Z,35.33
2018-11-06T10:00:49.226Z,28.93
2018-11-06T10:03:17.458Z,29.23
2018-11-06T10:05:45.781Z,29.03
2018-11-06T10:08:13.880Z,31.10
2018-11-06T10:10:42.052Z,32.30
2018-11-06T10:13:10.202Z,25.93
2018-11-06T10:15:38.342Z,28.70
2018-11-06T10:18:06.678Z,29.87
2018-11-06T10:20:34.771Z,30.37
2018-11-06T10:23:02.948Z,26.73
2018-11-06T10:25:31.265Z,27.20
2018-11-06T10:27:59.499Z,26.33
2018-11-06T10:30:27.582Z,27.37
2018-11-06T10:32:55.652Z,26.93
2018-11-06T10:35:23.729Z,28.30
2018-11-06T10:37:51.846Z,25.70
2018-11-06T10:40:21.291Z,27.40
2018-11-06T10:42:49.640Z,27.80
2018-11-06T10:45:18.340Z,26.07
2018-11-06T10:47:46.820Z,27.13
2018-11-06T10:50:15.700Z,24.40
2018-11-06T10:52:44.484Z,28.13
2018-11-06T10:55:12.607Z,24.77
2018-11-06T10:57:41.271Z,28.23
2018-11-06T11:00:17.748Z,25.50
2018-11-06T11:02:51.409Z,27.67
2018-11-06T11:05:20.598Z,25.33
2018-11-06T11:07:48.723Z,25.67
2018-11-06T11:10:16.776Z,23.80
2018-11-06T11:12:44.952Z,26.53
2018-11-06T11:15:13.319Z,24.97
2018-11-06T11:17:41.607Z,23.47
2018-11-06T11:20:11.646Z,23.67
2018-11-06T11:22:40.096Z,24.20
2018-11-06T11:25:10.118Z,24.57
2018-11-06T11:27:38.418Z,20.67
2018-11-06T11:30:08.256Z,19.77
2018-11-06T11:32:36.370Z,22.00
2018-11-06T11:35:05.022Z,20.93
2018-11-06T11:37:33.152Z,19.77
2018-11-06T11:40:01.225Z,18.27
2018-11-06T11:42:29.385Z,21.83
2018-11-06T11:44:57.623Z,21.13
2018-11-06T11:47:25.838Z,21.50
2018-11-06T11:49:53.990Z,19.37
2018-11-06T11:52:22.194Z,18.73
2018-11-06T11:54:50.241Z,18.67
2018-11-06T11:57:18.394Z,16.27
2018-11-06T11:59:46.496Z,19.07
2018-11-06T12:02:14.577Z,16.23
2018-11-06T12:04:42.681Z,17.10
2018-11-06T12:07:10.808Z,16.80
2018-11-06T12:09:38.866Z,21.30
2018-11-06T12:12:06.964Z,19.03
2018-11-06T12:14:35.145Z,16.80
2018-11-06T12:17:03.213Z,17.07
2018-11-06T12:19:31.304Z,21.03
2018-11-06T12:21:59.376Z,21.67
2018-11-06T12:24:27.501Z,18.10
2018-11-06T12:26:55.601Z,21.50
2018-11-06T12:29:23.667Z,19.53
2018-11-06T12:31:51.868Z,16.83
2018-11-06T12:34:19.896Z,19.00
2018-11-06T12:36:48.048Z,17.40
2018-11-06T12:39:16.350Z,19.67
2018-11-06T12:41:44.429Z,19.90
2018-11-06T12:44:12.591Z,22.80
2018-11-06T12:46:40.677Z,17.83
2018-11-06T12:49:08.782Z,17.20
2018-11-06T12:51:36.916Z,20.53
2018-11-06T12:54:05.295Z,16.07
2018-11-06T12:56:33.499Z,17.70
2018-11-06T12:59:01.535Z,17.97
2018-11-06T13:01:29.892Z,14.80
2018-11-06T13:03:58.088Z,17.53
2018-11-06T13:06:26.150Z,19.63
2018-11-06T13:08:54.242Z,18.13
2018-11-06T13:11:22.493Z,16.10
2018-11-06T13:13:50.588Z,17.53
2018-11-06T13:16:18.647Z,19.73
2018-11-06T13:18:46.754Z,18.53
2018-11-06T13:21:14.777Z,17.73
2018-11-06T13:23:42.872Z,16.33
2018-11-06T13:26:11.003Z,18.83
2018-11-06T13:28:39.130Z,16.00
2018-11-06T13:31:07.182Z,13.37
2018-11-06T13:33:35.640Z,17.33
2018-11-06T13:36:03.784Z,16.47
2018-11-06T13:38:32.189Z,17.83
2018-11-06T13:41:00.386Z,19.13
2018-11-06T13:43:28.632Z,14.80
2018-11-06T13:45:56.701Z,17.17
2018-11-06T13:48:24.793Z,15.30
2018-11-06T13:50:53.074Z,15.60
2018-11-06T13:53:21.157Z,19.97
2018-11-06T13:55:49.204Z,18.17
2018-11-06T13:58:17.681Z,16.63
2018-11-06T14:00:45.872Z,18.37
2018-11-06T14:03:13.957Z,15.07
2018-11-06T14:05:42.043Z,13.70
2018-11-06T14:08:10.089Z,14.20
2018-11-06T14:10:38.150Z,16.83
2018-11-06T14:13:06.351Z,18.37
2018-11-06T14:15:34.475Z,13.90
2018-11-06T14:18:02.565Z,15.90
2018-11-06T14:20:30.748Z,17.83
2018-11-06T14:22:58.901Z,15.97
2018-11-06T14:25:27.100Z,16.67
2018-11-06T14:27:55.157Z,21.47
2018-11-06T14:30:23.244Z,19.20
2018-11-06T14:32:51.320Z,15.50
2018-11-06T14:35:19.870Z,16.07
2018-11-06T14:37:48.240Z,20.33
2018-11-06T14:40:16.696Z,17.10
2018-11-06T14:42:45.421Z,19.77
2018-11-06T14:45:14.689Z,14.87
2018-11-06T14:47:42.946Z,15.10
2018-11-06T14:50:11.532Z,20.47
2018-11-06T14:52:39.545Z,16.50
2018-11-06T14:55:09.315Z,13.37
2018-11-06T14:57:37.422Z,18.30
2018-11-06T15:00:07.657Z,28.90
2018-11-06T15:02:35.737Z,21.03
2018-11-06T15:05:04.184Z,42.07
2018-11-06T15:07:32.314Z,77.33
2018-11-06T15:10:00.367Z,38.53
2018-11-06T15:12:28.490Z,18.97
2018-11-06T15:14:56.777Z,19.10
2018-11-06T15:17:24.897Z,20.57
2018-11-06T15:19:52.977Z,22.93
2018-11-06T15:22:21.022Z,20.27
2018-11-06T15:24:49.103Z,21.33
2018-11-06T15:27:17.172Z,21.63
2018-11-06T15:29:45.317Z,20.97
2018-11-06T15:32:13.538Z,22.60
2018-11-06T15:34:41.720Z,21.77
2018-11-06T15:37:09.768Z,23.93
2018-11-06T15:39:37.907Z,22.53
2018-11-06T15:42:06.065Z,23.33
2018-11-06T15:44:34.282Z,24.73
2018-11-06T15:47:02.578Z,21.97
2018-11-06T15:49:30.611Z,26.23
2018-11-06T15:51:59.511Z,21.10
2018-11-06T15:54:27.722Z,22.87
2018-11-06T15:56:55.756Z,19.63
2018-11-06T15:59:23.909Z,21.73
2018-11-06T16:01:52.054Z,21.80
2018-11-06T16:04:20.230Z,26.67
2018-11-06T16:06:48.388Z,22.63
2018-11-06T16:09:16.529Z,24.30
2018-11-06T16:11:44.794Z,23.67
2018-11-06T16:14:13.841Z,23.67
2018-11-06T16:16:42.725Z,25.90
2018-11-06T16:19:11.441Z,24.67
2018-11-06T16:21:39.652Z,24.50
2018-11-06T16:24:08.277Z,25.87
2018-11-06T16:26:36.933Z,25.93
2018-11-06T16:29:05.306Z,24.40
2018-11-06T16:31:33.857Z,26.53
2018-11-06T16:34:02.030Z,26.37
2018-11-06T16:36:30.141Z,24.70
2018-11-06T16:38:58.338Z,25.60
2018-11-06T16:41:26.472Z,30.60
2018-11-06T16:43:54.572Z,26.10
2018-11-06T16:46:22.613Z,24.30
2018-11-06T16:48:50.695Z,25.70
2018-11-06T16:51:18.765Z,27.63
2018-11-06T16:53:46.846Z,23.37
2018-11-06T16:56:14.968Z,27.63
2018-11-06T16:58:43.062Z,28.60
2018-11-06T17:01:11.361Z,28.93
2018-11-06T17:03:39.304Z,29.07
2018-11-06T17:06:11.842Z,31.60
2018-11-06T17:08:40.059Z,27.13
2018-11-06T17:11:08.121Z,24.23
2018-11-06T17:13:36.197Z,28.93
2018-11-06T17:16:04.591Z,23.83
2018-11-06T17:18:32.653Z,24.10
2018-11-06T17:21:00.832Z,30.07
2018-11-06T17:23:28.884Z,30.93
2018-11-06T17:25:57.076Z,31.53
2018-11-06T17:28:25.184Z,32.70
2018-11-06T17:30:53.240Z,30.63
2018-11-06T17:33:21.392Z,31.93
2018-11-06T17:35:49.465Z,32.57
2018-11-06T17:38:17.525Z,29.73
2018-11-06T17:40:45.685Z,31.70
2018-11-06T17:43:13.762Z,30.17
2018-11-06T17:45:41.953Z,30.20
2018-11-06T17:48:10.005Z,28.37
2018-11-06T17:50:38.503Z,30.90
2018-11-06T17:53:18.007Z,27.40
2018-11-06T17:55:46.933Z,30.60
2018-11-06T17:58:14.982Z,26.90
2018-11-06T18:00:43.272Z,26.20
2018-11-06T18:03:11.141Z,24.23
2018-11-06T18:05:38.990Z,28.97
2018-11-06T18:08:07.093Z,30.60
2018-11-06T18:10:35.162Z,30.83
2018-11-06T18:13:03.371Z,28.00
2018-11-06T18:15:31.477Z,25.43
2018-11-06T18:17:59.685Z,29.10
2018-11-06T18:20:27.755Z,27.83
2018-11-06T18:22:55.824Z,29.40
2018-11-06T18:25:24.295Z,26.40
2018-11-06T18:27:52.243Z,26.77
2018-11-06T18:30:20.361Z,28.27
2018-11-06T18:32:48.425Z,30.07
2018-11-06T18:35:17.303Z,32.60
2018-11-06T18:37:45.463Z,32.10
2018-11-06T18:40:15.634Z,33.60
2018-11-06T18:42:44.599Z,30.13
2018-11-06T18:45:13.303Z,29.87
2018-11-06T18:47:41.715Z,32.43
2018-11-06T18:50:11.516Z,26.20
2018-11-06T18:52:39.797Z,29.80
2018-11-06T18:55:07.766Z,30.27
2018-11-06T18:57:35.686Z,31.53
2018-11-06T19:00:04.241Z,30.37
2018-11-06T19:02:32.112Z,29.80
2018-11-06T19:05:00.008Z,34.27
2018-11-06T19:07:27.917Z,31.80
2018-11-06T19:09:55.789Z,31.37
2018-11-06T19:12:23.683Z,29.93
2018-11-06T19:14:51.549Z,30.83
2018-11-06T19:17:19.657Z,28.97
2018-11-06T19:19:47.688Z,34.77
2018-11-06T19:22:15.875Z,32.73
2018-11-06T19:24:43.744Z,27.57
2018-11-06T19:27:11.619Z,31.87
2018-11-06T19:29:39.569Z,30.93
2018-11-06T19:32:07.683Z,32.03
2018-11-06T20:06:24.772Z,36.03
2018-11-06T20:08:52.625Z,34.60
2018-11-06T20:11:20.606Z,31.73
2018-11-06T20:13:48.530Z,33.57
2018-11-06T20:16:16.458Z,34.53
2018-11-06T20:18:44.430Z,31.97
2018-11-06T20:21:12.410Z,32.50
2018-11-06T20:23:40.424Z,34.30
2018-11-06T20:26:08.422Z,41.07
2018-11-06T20:28:36.666Z,31.73
2018-11-06T20:31:05.261Z,34.87
2018-11-06T20:33:33.441Z,36.37
2018-11-06T20:36:01.320Z,35.53
2018-11-06T20:38:29.405Z,33.80
2018-11-06T20:40:57.454Z,38.60
2018-11-06T20:43:25.502Z,34.00
2018-11-06T20:45:53.536Z,37.03
2018-11-06T20:48:21.556Z,36.00
2018-11-06T20:50:49.636Z,33.37
2018-11-06T20:53:17.852Z,37.63
2018-11-06T20:55:46.104Z,33.93
2018-11-06T20:58:14.230Z,31.43
2018-11-06T21:00:42.111Z,34.80
2018-11-06T21:03:10.013Z,32.83
2018-11-06T21:05:38.094Z,29.80
2018-11-06T21:08:06.067Z,33.00
2018-11-06T21:10:43.115Z,30.03
2018-11-06T21:13:11.322Z,35.00
2018-11-06T21:15:39.156Z,35.17
2018-11-06T21:18:07.104Z,34.37
2018-11-06T21:20:34.968Z,35.97
2018-11-06T21:23:02.830Z,35.83
2018-11-06T21:25:30.768Z,40.47
2018-11-06T21:27:58.630Z,44.43
2018-11-06T21:30:26.864Z,40.70
2018-11-06T21:32:54.763Z,38.83
2018-11-06T21:35:22.773Z,37.53
2018-11-06T21:37:50.665Z,40.67
2018-11-06T21:40:19.836Z,40.60
2018-11-06T21:42:48.204Z,36.10
2018-11-06T21:45:16.692Z,38.43
2018-11-06T21:47:45.440Z,40.27
2018-11-06T21:50:14.236Z,35.23
2018-11-06T21:52:42.226Z,36.03
2018-11-06T21:55:11.399Z,38.60
2018-11-06T21:57:39.314Z,38.27
2018-11-06T22:00:09.438Z,38.60
2018-11-06T22:02:37.648Z,46.57
2018-11-06T22:05:07.273Z,39.53
2018-11-06T22:07:35.202Z,41.03
2018-11-06T22:10:03.205Z,39.83
2018-11-06T22:12:31.184Z,37.67
2018-11-06T22:14:59.044Z,40.90
2018-11-06T22:17:26.970Z,41.77
2018-11-06T22:19:54.902Z,46.03
2018-11-06T22:22:22.882Z,46.10
2018-11-06T22:24:50.685Z,40.13
2018-11-06T22:27:18.627Z,38.70
2018-11-06T22:29:46.617Z,40.00
2018-11-06T22:32:14.555Z,41.57
2018-11-06T22:34:42.464Z,36.87
2018-11-06T22:37:10.548Z,39.63
2018-11-06T22:39:38.318Z,32.90
2018-11-06T22:42:06.245Z,34.43
2018-11-06T22:44:34.112Z,34.30
2018-11-06T22:47:02.083Z,36.23
2018-11-06T22:49:29.971Z,37.10
2018-11-06T22:51:57.835Z,39.63
2018-11-06T22:54:32.322Z,36.03
2018-11-06T22:57:00.233Z,30.50
2018-11-06T22:59:28.164Z,31.23
2018-11-06T23:02:01.107Z,35.63
2018-11-06T23:04:29.115Z,36.60
2018-11-06T23:06:57.114Z,31.03
2018-11-06T23:09:24.941Z,32.93
2018-11-06T23:11:52.856Z,36.50
2018-11-06T23:14:20.825Z,33.67
2018-11-06T23:16:48.715Z,30.53
2018-11-06T23:19:16.660Z,37.97
2018-11-06T23:21:44.554Z,32.17
2018-11-06T23:24:12.506Z,36.30
2018-11-06T23:26:40.400Z,31.17
2018-11-06T23:29:08.292Z,29.20
2018-11-06T23:31:36.240Z,30.50
2018-11-06T23:34:04.215Z,35.67
2018-11-06T23:36:32.103Z,32.53
2018-11-06T23:39:00.032Z,33.43
2018-11-06T23:41:27.921Z,34.43
2018-11-06T23:43:55.832Z,36.20
2018-11-06T23:46:23.695Z,36.33
2018-11-06T23:48:51.674Z,33.70
2018-11-06T23:51:19.570Z,30.70
2018-11-06T23:53:47.472Z,31.83
2018-11-06T23:56:15.395Z,32.23
2018-11-06T23:58:43.259Z,36.73
